sensor_id;sensor_type;location;lat;lon;timestamp;P1;durP1;ratioP1;P2;durP2;ratioP2
562;SDS011;266;49.514;8.294;2024-02-21T00:01:07;6.83;;;3.40;;
562;SDS011;266;49.514;8.294;2024-02-21T00:03:35;4.90;;;3.47;;
562;SDS011;266;49.514;8.294;2024-02-21T00:06:04;8.40;;;4.50;;
562;SDS011;266;49.514;8.294;2024-02-21T00:08:32;6.30;;;3.53;;
562;SDS011;266;49.514;8.294;2024-02-21T00:11:01;7.47;;;4.30;;
562;SDS011;266;49.514;8.294;2024-02-21T00:13:29;7.13;;;4.07;;
562;SDS011;266;49.514;8.294;2024-02-21T00:15:57;4.67;;;3.93;;
562;SDS011;266;49.514;8.294;2024-02-21T00:18:27;7.00;;;3.63;;
562;SDS011;266;49.514;8.294;2024-02-21T00:20:56;4.40;;;3.50;;
562;SDS011;266;49.514;8.294;2024-02-21T00:23:24;5.70;;;3.93;;
562;SDS011;266;49.514;8.294;2024-02-21T00:25:51;5.70;;;4.23;;
562;SDS011;266;49.514;8.294;2024-02-21T00:28:22;4.00;;;3.60;;
562;SDS011;266;49.514;8.294;2024-02-21T00:30:50;7.97;;;4.50;;
562;SDS011;266;49.514;8.294;2024-02-21T00:33:19;6.13;;;3.93;;
562;SDS011;266;49.514;8.294;2024-02-21T00:35:47;4.23;;;3.13;;
562;SDS011;266;49.514;8.294;2024-02-21T00:38:15;7.00;;;3.23;;
562;SDS011;266;49.514;8.294;2024-02-21T00:40:43;4.80;;;3.10;;
562;SDS011;266;49.514;8.294;2024-02-21T00:43:11;10.80;;;4.33;;
562;SDS011;266;49.514;8.294;2024-02-21T00:45:41;3.70;;;2.90;;
562;SDS011;266;49.514;8.294;2024-02-21T00:48:08;6.37;;;3.53;;
562;SDS011;266;49.514;8.294;2024-02-21T00:50:37;7.40;;;4.50;;
562;SDS011;266;49.514;8.294;2024-02-21T00:53:04;6.33;;;3.97;;
562;SDS011;266;49.514;8.294;2024-02-21T00:55:32;7.90;;;4.27;;
562;SDS011;266;49.514;8.294;2024-02-21T00:58:01;3.90;;;3.50;;
562;SDS011;266;49.514;8.294;2024-02-21T01:00:29;7.23;;;3.97;;
562;SDS011;266;49.514;8.294;2024-02-21T01:02:58;5.00;;;3.37;;
562;SDS011;266;49.514;8.294;2024-02-21T01:05:26;3.20;;;2.90;;
562;SDS011;266;49.514;8.294;2024-02-21T01:07:55;5.17;;;3.93;;
562;SDS011;266;49.514;8.294;2024-02-21T01:10:23;6.30;;;4.03;;
562;SDS011;266;49.514;8.294;2024-02-21T01:12:51;6.10;;;3.87;;
562;SDS011;266;49.514;8.294;2024-02-21T01:15:19;4.23;;;3.10;;
562;SDS011;266;49.514;8.294;2024-02-21T01:17:47;9.00;;;4.70;;
562;SDS011;266;49.514;8.294;2024-02-21T01:20:17;7.73;;;3.60;;
562;SDS011;266;49.514;8.294;2024-02-21T01:22:45;6.40;;;3.87;;
562;SDS011;266;49.514;8.294;2024-02-21T01:25:13;5.23;;;3.50;;
562;SDS011;266;49.514;8.294;2024-02-21T01:27:41;4.40;;;3.53;;
562;SDS011;266;49.514;8.294;2024-02-21T01:30:09;12.27;;;3.93;;
562;SDS011;266;49.514;8.294;2024-02-21T01:32:38;4.80;;;3.40;;
562;SDS011;266;49.514;8.294;2024-02-21T01:35:07;7.50;;;5.23;;
562;SDS011;266;49.514;8.294;2024-02-21T01:37:37;6.73;;;3.23;;
562;SDS011;266;49.514;8.294;2024-02-21T01:40:05;5.70;;;3.80;;
562;SDS011;266;49.514;8.294;2024-02-21T01:42:37;3.90;;;3.20;;
562;SDS011;266;49.514;8.294;2024-02-21T01:45:06;6.60;;;4.00;;
562;SDS011;266;49.514;8.294;2024-02-21T01:47:34;6.20;;;3.17;;
562;SDS011;266;49.514;8.294;2024-02-21T01:50:03;6.80;;;3.53;;
562;SDS011;266;49.514;8.294;2024-02-21T01:52:32;5.90;;;3.70;;
562;SDS011;266;49.514;8.294;2024-02-21T01:55:04;7.17;;;3.80;;
562;SDS011;266;49.514;8.294;2024-02-21T01:57:33;5.57;;;3.20;;
562;SDS011;266;49.514;8.294;2024-02-21T02:00:01;10.20;;;3.73;;
562;SDS011;266;49.514;8.294;2024-02-21T02:02:30;3.97;;;3.10;;
562;SDS011;266;49.514;8.294;2024-02-21T02:04:58;4.20;;;3.03;;
562;SDS011;266;49.514;8.294;2024-02-21T02:07:28;4.43;;;2.87;;
562;SDS011;266;49.514;8.294;2024-02-21T02:09:56;6.97;;;4.60;;
562;SDS011;266;49.514;8.294;2024-02-21T02:12:25;6.13;;;3.20;;
562;SDS011;266;49.514;8.294;2024-02-21T02:14:57;6.30;;;3.23;;
562;SDS011;266;49.514;8.294;2024-02-21T02:17:26;5.00;;;2.90;;
562;SDS011;266;49.514;8.294;2024-02-21T02:19:54;6.63;;;3.67;;
562;SDS011;266;49.514;8.294;2024-02-21T02:22:22;3.50;;;3.13;;
562;SDS011;266;49.514;8.294;2024-02-21T02:24:57;5.80;;;3.20;;
562;SDS011;266;49.514;8.294;2024-02-21T02:27:25;5.03;;;3.70;;
562;SDS011;266;49.514;8.294;2024-02-21T02:29:53;3.63;;;3.20;;
562;SDS011;266;49.514;8.294;2024-02-21T02:32:20;7.10;;;3.40;;
562;SDS011;266;49.514;8.294;2024-02-21T02:34:49;5.23;;;3.20;;
562;SDS011;266;49.514;8.294;2024-02-21T02:37:17;8.50;;;3.83;;
562;SDS011;266;49.514;8.294;2024-02-21T02:39:45;6.83;;;3.90;;
562;SDS011;266;49.514;8.294;2024-02-21T02:42:14;4.43;;;3.13;;
562;SDS011;266;49.514;8.294;2024-02-21T02:44:42;7.70;;;3.60;;
562;SDS011;266;49.514;8.294;2024-02-21T02:47:10;6.33;;;3.20;;
562;SDS011;266;49.514;8.294;2024-02-21T02:49:38;5.97;;;3.93;;
562;SDS011;266;49.514;8.294;2024-02-21T02:52:06;5.43;;;3.70;;
562;SDS011;266;49.514;8.294;2024-02-21T02:54:34;8.80;;;3.50;;
562;SDS011;266;49.514;8.294;2024-02-21T02:57:02;8.23;;;3.27;;
562;SDS011;266;49.514;8.294;2024-02-21T02:59:33;5.20;;;3.50;;
562;SDS011;266;49.514;8.294;2024-02-21T03:02:01;3.80;;;3.40;;
562;SDS011;266;49.514;8.294;2024-02-21T03:04:30;6.00;;;4.10;;
562;SDS011;266;49.514;8.294;2024-02-21T03:06:58;10.00;;;3.33;;
562;SDS011;266;49.514;8.294;2024-02-21T03:09:26;6.23;;;3.00;;
562;SDS011;266;49.514;8.294;2024-02-21T03:11:54;5.17;;;2.63;;
562;SDS011;266;49.514;8.294;2024-02-21T03:14:28;6.60;;;3.10;;
562;SDS011;266;49.514;8.294;2024-02-21T03:16:58;8.87;;;3.17;;
562;SDS011;266;49.514;8.294;2024-02-21T03:19:26;6.83;;;3.50;;
562;SDS011;266;49.514;8.294;2024-02-21T03:21:54;5.10;;;3.30;;
562;SDS011;266;49.514;8.294;2024-02-21T03:24:23;5.10;;;3.57;;
562;SDS011;266;49.514;8.294;2024-02-21T03:26:51;4.57;;;3.27;;
562;SDS011;266;49.514;8.294;2024-02-21T03:29:19;4.63;;;3.10;;
562;SDS011;266;49.514;8.294;2024-02-21T03:31:46;7.20;;;3.23;;
562;SDS011;266;49.514;8.294;2024-02-21T03:34:16;6.07;;;3.40;;
562;SDS011;266;49.514;8.294;2024-02-21T03:36:44;5.20;;;2.83;;
562;SDS011;266;49.514;8.294;2024-02-21T03:39:12;6.63;;;3.30;;
562;SDS011;266;49.514;8.294;2024-02-21T03:41:40;4.97;;;3.60;;
562;SDS011;266;49.514;8.294;2024-02-21T03:44:08;5.80;;;3.83;;
562;SDS011;266;49.514;8.294;2024-02-21T03:46:36;7.03;;;3.70;;
562;SDS011;266;49.514;8.294;2024-02-21T03:49:04;6.13;;;3.37;;
562;SDS011;266;49.514;8.294;2024-02-21T03:51:33;4.03;;;3.20;;
562;SDS011;266;49.514;8.294;2024-02-21T03:54:01;10.43;;;3.83;;
562;SDS011;266;49.514;8.294;2024-02-21T03:56:29;5.63;;;3.73;;
562;SDS011;266;49.514;8.294;2024-02-21T03:58:57;5.60;;;3.10;;
562;SDS011;266;49.514;8.294;2024-02-21T04:01:25;4.07;;;3.67;;
562;SDS011;266;49.514;8.294;2024-02-21T04:03:53;7.80;;;3.17;;
562;SDS011;266;49.514;8.294;2024-02-21T04:06:21;5.40;;;3.17;;
562;SDS011;266;49.514;8.294;2024-02-21T04:08:51;3.80;;;2.80;;
562;SDS011;266;49.514;8.294;2024-02-21T04:11:19;4.07;;;3.40;;
562;SDS011;266;49.514;8.294;2024-02-21T04:13:47;5.00;;;3.00;;
562;SDS011;266;49.514;8.294;2024-02-21T04:16:17;4.77;;;4.00;;
562;SDS011;266;49.514;8.294;2024-02-21T04:18:45;3.60;;;3.30;;
562;SDS011;266;49.514;8.294;2024-02-21T04:21:14;10.80;;;3.97;;
562;SDS011;266;49.514;8.294;2024-02-21T04:23:42;4.17;;;3.87;;
562;SDS011;266;49.514;8.294;2024-02-21T04:26:12;7.43;;;3.30;;
562;SDS011;266;49.514;8.294;2024-02-21T04:28:40;5.00;;;3.60;;
562;SDS011;266;49.514;8.294;2024-02-21T04:31:08;5.03;;;3.40;;
562;SDS011;266;49.514;8.294;2024-02-21T04:33:35;3.60;;;2.80;;
562;SDS011;266;49.514;8.294;2024-02-21T04:36:04;6.10;;;3.83;;
562;SDS011;266;49.514;8.294;2024-02-21T04:38:32;4.53;;;3.30;;
562;SDS011;266;49.514;8.294;2024-02-21T04:41:00;9.13;;;3.90;;
562;SDS011;266;49.514;8.294;2024-02-21T04:43:29;4.30;;;3.10;;
562;SDS011;266;49.514;8.294;2024-02-21T04:45:57;4.43;;;4.03;;
562;SDS011;266;49.514;8.294;2024-02-21T04:48:25;4.70;;;3.93;;
562;SDS011;266;49.514;8.294;2024-02-21T04:50:53;6.90;;;3.77;;
562;SDS011;266;49.514;8.294;2024-02-21T04:53:21;8.50;;;4.10;;
562;SDS011;266;49.514;8.294;2024-02-21T04:55:49;6.70;;;3.50;;
562;SDS011;266;49.514;8.294;2024-02-21T04:58:17;5.57;;;4.07;;
562;SDS011;266;49.514;8.294;2024-02-21T05:00:46;4.07;;;3.67;;
562;SDS011;266;49.514;8.294;2024-02-21T05:03:14;5.83;;;3.20;;
562;SDS011;266;49.514;8.294;2024-02-21T05:05:42;6.13;;;4.20;;
562;SDS011;266;49.514;8.294;2024-02-21T05:08:11;4.67;;;3.53;;
562;SDS011;266;49.514;8.294;2024-02-21T05:10:39;4.53;;;3.53;;
562;SDS011;266;49.514;8.294;2024-02-21T05:13:07;4.40;;;3.07;;
562;SDS011;266;49.514;8.294;2024-02-21T05:15:35;5.60;;;3.93;;
562;SDS011;266;49.514;8.294;2024-02-21T05:18:04;5.13;;;3.20;;
562;SDS011;266;49.514;8.294;2024-02-21T05:20:33;5.03;;;4.57;;
562;SDS011;266;49.514;8.294;2024-02-21T05:23:01;3.90;;;3.03;;
562;SDS011;266;49.514;8.294;2024-02-21T05:25:29;5.97;;;3.27;;
562;SDS011;266;49.514;8.294;2024-02-21T05:27:57;5.70;;;3.50;;
562;SDS011;266;49.514;8.294;2024-02-21T05:30:28;8.50;;;3.90;;
562;SDS011;266;49.514;8.294;2024-02-21T05:32:57;7.80;;;3.63;;
562;SDS011;266;49.514;8.294;2024-02-21T05:35:27;4.10;;;3.80;;
562;SDS011;266;49.514;8.294;2024-02-21T05:37:56;5.57;;;3.60;;
562;SDS011;266;49.514;8.294;2024-02-21T05:40:25;4.37;;;2.73;;
562;SDS011;266;49.514;8.294;2024-02-21T05:42:53;8.70;;;3.77;;
562;SDS011;266;49.514;8.294;2024-02-21T05:45:21;6.43;;;4.33;;
562;SDS011;266;49.514;8.294;2024-02-21T05:47:49;4.10;;;3.70;;
562;SDS011;266;49.514;8.294;2024-02-21T05:50:17;7.30;;;3.50;;
562;SDS011;266;49.514;8.294;2024-02-21T05:52:50;5.90;;;3.57;;
562;SDS011;266;49.514;8.294;2024-02-21T05:55:19;4.30;;;3.10;;
562;SDS011;266;49.514;8.294;2024-02-21T05:57:47;4.00;;;3.60;;
562;SDS011;266;49.514;8.294;2024-02-21T06:00:15;4.70;;;3.30;;
562;SDS011;266;49.514;8.294;2024-02-21T06:02:44;4.43;;;3.60;;
562;SDS011;266;49.514;8.294;2024-02-21T06:05:12;4.20;;;3.80;;
562;SDS011;266;49.514;8.294;2024-02-21T06:07:40;3.83;;;3.20;;
562;SDS011;266;49.514;8.294;2024-02-21T06:10:09;6.13;;;3.83;;
562;SDS011;266;49.514;8.294;2024-02-21T06:12:37;6.70;;;4.07;;
562;SDS011;266;49.514;8.294;2024-02-21T06:15:05;9.10;;;4.57;;
562;SDS011;266;49.514;8.294;2024-02-21T06:17:34;4.73;;;3.77;;
562;SDS011;266;49.514;8.294;2024-02-21T06:20:02;4.70;;;3.90;;
562;SDS011;266;49.514;8.294;2024-02-21T06:22:31;5.53;;;3.37;;
562;SDS011;266;49.514;8.294;2024-02-21T06:24:59;7.87;;;3.83;;
562;SDS011;266;49.514;8.294;2024-02-21T06:27:29;5.13;;;3.73;;
562;SDS011;266;49.514;8.294;2024-02-21T06:29:57;6.37;;;4.40;;
562;SDS011;266;49.514;8.294;2024-02-21T06:32:25;4.73;;;3.77;;
562;SDS011;266;49.514;8.294;2024-02-21T06:34:53;4.10;;;3.70;;
562;SDS011;266;49.514;8.294;2024-02-21T06:37:21;6.57;;;3.80;;
562;SDS011;266;49.514;8.294;2024-02-21T06:39:49;5.90;;;3.70;;
562;SDS011;266;49.514;8.294;2024-02-21T06:42:17;5.00;;;4.60;;
562;SDS011;266;49.514;8.294;2024-02-21T06:44:47;6.17;;;4.27;;
562;SDS011;266;49.514;8.294;2024-02-21T06:47:15;7.23;;;5.10;;
562;SDS011;266;49.514;8.294;2024-02-21T06:49:43;5.70;;;4.17;;
562;SDS011;266;49.514;8.294;2024-02-21T06:52:17;5.50;;;3.90;;
562;SDS011;266;49.514;8.294;2024-02-21T06:54:46;5.57;;;3.63;;
562;SDS011;266;49.514;8.294;2024-02-21T06:57:14;7.30;;;5.63;;
562;SDS011;266;49.514;8.294;2024-02-21T06:59:42;11.53;;;3.80;;
562;SDS011;266;49.514;8.294;2024-02-21T07:02:12;7.70;;;4.43;;
562;SDS011;266;49.514;8.294;2024-02-21T07:04:40;8.43;;;4.30;;
562;SDS011;266;49.514;8.294;2024-02-21T07:07:08;3.93;;;3.53;;
562;SDS011;266;49.514;8.294;2024-02-21T07:09:36;6.40;;;3.90;;
562;SDS011;266;49.514;8.294;2024-02-21T07:12:04;12.20;;;4.13;;
562;SDS011;266;49.514;8.294;2024-02-21T07:14:32;11.03;;;4.20;;
562;SDS011;266;49.514;8.294;2024-02-21T07:17:01;5.13;;;3.80;;
562;SDS011;266;49.514;8.294;2024-02-21T07:19:31;5.00;;;4.00;;
562;SDS011;266;49.514;8.294;2024-02-21T07:21:59;9.23;;;4.60;;
562;SDS011;266;49.514;8.294;2024-02-21T07:24:27;10.07;;;4.10;;
562;SDS011;266;49.514;8.294;2024-02-21T07:26:55;9.70;;;4.23;;
562;SDS011;266;49.514;8.294;2024-02-21T07:29:23;7.37;;;3.70;;
562;SDS011;266;49.514;8.294;2024-02-21T07:31:51;6.47;;;4.77;;
562;SDS011;266;49.514;8.294;2024-02-21T07:34:20;7.50;;;4.60;;
562;SDS011;266;49.514;8.294;2024-02-21T07:36:49;3.53;;;3.00;;
562;SDS011;266;49.514;8.294;2024-02-21T07:39:17;5.83;;;3.97;;
562;SDS011;266;49.514;8.294;2024-02-21T07:41:45;8.23;;;4.63;;
562;SDS011;266;49.514;8.294;2024-02-21T07:44:14;9.00;;;4.20;;
562;SDS011;266;49.514;8.294;2024-02-21T07:46:42;5.20;;;3.30;;
562;SDS011;266;49.514;8.294;2024-02-21T07:49:10;6.40;;;3.93;;
562;SDS011;266;49.514;8.294;2024-02-21T07:51:38;5.37;;;3.80;;
562;SDS011;266;49.514;8.294;2024-02-21T07:54:07;9.43;;;4.40;;
562;SDS011;266;49.514;8.294;2024-02-21T07:56:39;6.10;;;4.20;;
562;SDS011;266;49.514;8.294;2024-02-21T07:59:07;4.30;;;3.80;;
562;SDS011;266;49.514;8.294;2024-02-21T08:01:35;4.53;;;4.13;;
562;SDS011;266;49.514;8.294;2024-02-21T08:04:03;5.13;;;3.40;;
562;SDS011;266;49.514;8.294;2024-02-21T08:06:31;6.33;;;4.03;;
562;SDS011;266;49.514;8.294;2024-02-21T08:09:00;4.67;;;4.23;;
562;SDS011;266;49.514;8.294;2024-02-21T08:11:30;6.13;;;3.97;;
562;SDS011;266;49.514;8.294;2024-02-21T08:13:58;7.83;;;4.40;;
562;SDS011;266;49.514;8.294;2024-02-21T08:16:27;6.23;;;4.07;;
562;SDS011;266;49.514;8.294;2024-02-21T08:18:54;5.37;;;4.57;;
562;SDS011;266;49.514;8.294;2024-02-21T08:21:24;5.10;;;4.50;;
562;SDS011;266;49.514;8.294;2024-02-21T08:23:52;9.03;;;4.80;;
562;SDS011;266;49.514;8.294;2024-02-21T08:26:20;9.80;;;4.43;;
562;SDS011;266;49.514;8.294;2024-02-21T08:28:50;6.80;;;3.23;;
562;SDS011;266;49.514;8.294;2024-02-21T08:31:18;8.50;;;4.67;;
562;SDS011;266;49.514;8.294;2024-02-21T08:33:47;5.27;;;4.73;;
562;SDS011;266;49.514;8.294;2024-02-21T08:36:17;6.60;;;4.47;;
562;SDS011;266;49.514;8.294;2024-02-21T08:38:46;5.40;;;4.00;;
562;SDS011;266;49.514;8.294;2024-02-21T08:41:14;6.40;;;4.27;;
562;SDS011;266;49.514;8.294;2024-02-21T08:43:42;5.00;;;3.97;;
562;SDS011;266;49.514;8.294;2024-02-21T08:46:12;6.83;;;3.90;;
562;SDS011;266;49.514;8.294;2024-02-21T08:48:40;8.37;;;4.00;;
562;SDS011;266;49.514;8.294;2024-02-21T08:51:08;6.17;;;3.70;;
562;SDS011;266;49.514;8.294;2024-02-21T08:53:36;5.53;;;3.97;;
562;SDS011;266;49.514;8.294;2024-02-21T08:56:04;6.23;;;3.70;;
562;SDS011;266;49.514;8.294;2024-02-21T08:58:34;5.70;;;3.90;;
562;SDS011;266;49.514;8.294;2024-02-21T09:01:03;4.80;;;3.53;;
562;SDS011;266;49.514;8.294;2024-02-21T09:03:33;6.20;;;3.63;;
562;SDS011;266;49.514;8.294;2024-02-21T09:06:01;5.70;;;4.03;;
562;SDS011;266;49.514;8.294;2024-02-21T09:08:29;8.60;;;4.03;;
562;SDS011;266;49.514;8.294;2024-02-21T09:10:57;6.00;;;3.00;;
562;SDS011;266;49.514;8.294;2024-02-21T09:13:26;6.10;;;3.50;;
562;SDS011;266;49.514;8.294;2024-02-21T09:15:55;5.00;;;3.97;;
562;SDS011;266;49.514;8.294;2024-02-21T09:18:23;3.70;;;3.30;;
562;SDS011;266;49.514;8.294;2024-02-21T09:20:52;11.27;;;4.10;;
562;SDS011;266;49.514;8.294;2024-02-21T09:23:20;3.93;;;2.80;;
562;SDS011;266;49.514;8.294;2024-02-21T09:25:51;7.50;;;3.50;;
562;SDS011;266;49.514;8.294;2024-02-21T09:28:19;5.93;;;3.13;;
562;SDS011;266;49.514;8.294;2024-02-21T09:30:47;7.73;;;3.03;;
562;SDS011;266;49.514;8.294;2024-02-21T09:33:15;9.97;;;3.50;;
562;SDS011;266;49.514;8.294;2024-02-21T09:35:58;4.60;;;3.73;;
562;SDS011;266;49.514;8.294;2024-02-21T09:38:27;6.83;;;3.60;;
562;SDS011;266;49.514;8.294;2024-02-21T09:40:55;3.63;;;3.33;;
562;SDS011;266;49.514;8.294;2024-02-21T09:43:27;4.00;;;2.97;;
562;SDS011;266;49.514;8.294;2024-02-21T09:45:56;6.60;;;3.67;;
562;SDS011;266;49.514;8.294;2024-02-21T09:48:30;5.73;;;3.57;;
562;SDS011;266;49.514;8.294;2024-02-21T09:51:07;4.60;;;3.10;;
562;SDS011;266;49.514;8.294;2024-02-21T09:53:37;7.67;;;4.17;;
562;SDS011;266;49.514;8.294;2024-02-21T09:56:13;3.83;;;3.13;;
562;SDS011;266;49.514;8.294;2024-02-21T09:58:42;4.10;;;3.17;;
562;SDS011;266;49.514;8.294;2024-02-21T10:01:10;2.87;;;2.67;;
562;SDS011;266;49.514;8.294;2024-02-21T10:03:55;5.70;;;3.07;;
562;SDS011;266;49.514;8.294;2024-02-21T10:06:25;5.40;;;3.13;;
562;SDS011;266;49.514;8.294;2024-02-21T10:08:54;4.63;;;3.10;;
562;SDS011;266;49.514;8.294;2024-02-21T10:11:22;5.37;;;3.50;;
562;SDS011;266;49.514;8.294;2024-02-21T10:13:51;3.90;;;3.60;;
562;SDS011;266;49.514;8.294;2024-02-21T10:16:19;6.47;;;3.30;;
562;SDS011;266;49.514;8.294;2024-02-21T10:18:47;4.50;;;3.30;;
562;SDS011;266;49.514;8.294;2024-02-21T10:21:21;7.63;;;3.87;;
562;SDS011;266;49.514;8.294;2024-02-21T10:23:51;7.83;;;3.53;;
562;SDS011;266;49.514;8.294;2024-02-21T10:26:19;7.73;;;3.70;;
562;SDS011;266;49.514;8.294;2024-02-21T10:28:47;4.80;;;3.30;;
562;SDS011;266;49.514;8.294;2024-02-21T10:31:21;7.27;;;3.60;;
562;SDS011;266;49.514;8.294;2024-02-21T10:33:53;6.20;;;3.27;;
562;SDS011;266;49.514;8.294;2024-02-21T10:36:23;7.80;;;3.90;;
562;SDS011;266;49.514;8.294;2024-02-21T10:38:53;4.87;;;3.10;;
562;SDS011;266;49.514;8.294;2024-02-21T10:41:22;9.57;;;3.73;;
562;SDS011;266;49.514;8.294;2024-02-21T10:43:51;3.47;;;3.03;;
562;SDS011;266;49.514;8.294;2024-02-21T10:46:23;4.00;;;2.90;;
562;SDS011;266;49.514;8.294;2024-02-21T10:48:56;3.47;;;3.10;;
562;SDS011;266;49.514;8.294;2024-02-21T10:51:33;3.70;;;3.30;;
562;SDS011;266;49.514;8.294;2024-02-21T10:54:19;5.67;;;3.40;;
562;SDS011;266;49.514;8.294;2024-02-21T10:56:57;7.27;;;3.83;;
562;SDS011;266;49.514;8.294;2024-02-21T10:59:28;4.10;;;3.00;;
562;SDS011;266;49.514;8.294;2024-02-21T11:01:58;8.93;;;3.37;;
562;SDS011;266;49.514;8.294;2024-02-21T11:04:26;3.43;;;3.07;;
562;SDS011;266;49.514;8.294;2024-02-21T11:06:57;6.70;;;3.00;;
562;SDS011;266;49.514;8.294;2024-02-21T11:09:36;9.77;;;3.30;;
562;SDS011;266;49.514;8.294;2024-02-21T11:12:05;5.70;;;3.47;;
562;SDS011;266;49.514;8.294;2024-02-21T11:14:37;6.50;;;2.60;;
562;SDS011;266;49.514;8.294;2024-02-21T11:17:14;4.10;;;3.00;;
562;SDS011;266;49.514;8.294;2024-02-21T11:19:43;3.40;;;3.10;;
562;SDS011;266;49.514;8.294;2024-02-21T11:22:15;5.03;;;2.77;;
562;SDS011;266;49.514;8.294;2024-02-21T11:24:45;5.40;;;3.50;;
562;SDS011;266;49.514;8.294;2024-02-21T11:27:13;4.80;;;4.17;;
562;SDS011;266;49.514;8.294;2024-02-21T11:29:43;9.27;;;3.13;;
562;SDS011;266;49.514;8.294;2024-02-21T11:32:11;4.67;;;3.13;;
562;SDS011;266;49.514;8.294;2024-02-21T11:34:52;6.17;;;3.30;;
562;SDS011;266;49.514;8.294;2024-02-21T11:37:24;3.40;;;2.47;;
562;SDS011;266;49.514;8.294;2024-02-21T11:39:54;3.30;;;2.70;;
562;SDS011;266;49.514;8.294;2024-02-21T11:42:22;3.33;;;2.80;;
562;SDS011;266;49.514;8.294;2024-02-21T11:44:52;3.90;;;2.63;;
562;SDS011;266;49.514;8.294;2024-02-21T11:47:23;5.43;;;3.37;;
562;SDS011;266;49.514;8.294;2024-02-21T11:49:51;5.30;;;3.03;;
562;SDS011;266;49.514;8.294;2024-02-21T11:52:21;5.07;;;2.57;;
562;SDS011;266;49.514;8.294;2024-02-21T11:54:51;4.50;;;2.03;;
562;SDS011;266;49.514;8.294;2024-02-21T11:57:22;2.63;;;2.43;;
562;SDS011;266;49.514;8.294;2024-02-21T11:59:50;2.73;;;2.50;;
562;SDS011;266;49.514;8.294;2024-02-21T12:02:25;3.83;;;3.00;;
562;SDS011;266;49.514;8.294;2024-02-21T12:04:55;4.50;;;3.43;;
562;SDS011;266;49.514;8.294;2024-02-21T12:07:23;3.37;;;2.60;;
562;SDS011;266;49.514;8.294;2024-02-21T12:09:51;7.33;;;3.53;;
562;SDS011;266;49.514;8.294;2024-02-21T12:12:22;3.23;;;2.30;;
562;SDS011;266;49.514;8.294;2024-02-21T12:14:53;3.83;;;2.97;;
562;SDS011;266;49.514;8.294;2024-02-21T12:17:24;6.87;;;2.60;;
562;SDS011;266;49.514;8.294;2024-02-21T12:19:53;5.20;;;3.10;;
562;SDS011;266;49.514;8.294;2024-02-21T12:22:33;5.30;;;2.60;;
562;SDS011;266;49.514;8.294;2024-02-21T12:25:17;5.83;;;2.83;;
562;SDS011;266;49.514;8.294;2024-02-21T12:27:47;3.10;;;2.70;;
562;SDS011;266;49.514;8.294;2024-02-21T12:30:16;3.60;;;3.00;;
562;SDS011;266;49.514;8.294;2024-02-21T12:32:44;4.30;;;3.00;;
562;SDS011;266;49.514;8.294;2024-02-21T12:35:12;4.43;;;2.70;;
562;SDS011;266;49.514;8.294;2024-02-21T12:37:41;3.67;;;2.20;;
562;SDS011;266;49.514;8.294;2024-02-21T12:40:09;2.87;;;2.30;;
562;SDS011;266;49.514;8.294;2024-02-21T12:42:40;2.80;;;2.60;;
562;SDS011;266;49.514;8.294;2024-02-21T12:45:09;4.83;;;2.70;;
562;SDS011;266;49.514;8.294;2024-02-21T12:47:38;3.70;;;2.57;;
562;SDS011;266;49.514;8.294;2024-02-21T12:50:06;6.40;;;2.40;;
562;SDS011;266;49.514;8.294;2024-02-21T12:52:35;3.83;;;2.57;;
562;SDS011;266;49.514;8.294;2024-02-21T12:55:04;5.40;;;2.83;;
562;SDS011;266;49.514;8.294;2024-02-21T12:57:32;2.60;;;2.40;;
562;SDS011;266;49.514;8.294;2024-02-21T13:00:00;5.33;;;2.37;;
562;SDS011;266;49.514;8.294;2024-02-21T13:02:30;3.53;;;3.17;;
562;SDS011;266;49.514;8.294;2024-02-21T13:04:58;2.23;;;2.07;;
562;SDS011;266;49.514;8.294;2024-02-21T13:07:27;7.10;;;2.47;;
562;SDS011;266;49.514;8.294;2024-02-21T13:09:57;2.60;;;2.00;;
562;SDS011;266;49.514;8.294;2024-02-21T13:12:25;3.80;;;2.60;;
562;SDS011;266;49.514;8.294;2024-02-21T13:14:54;6.77;;;2.37;;
562;SDS011;266;49.514;8.294;2024-02-21T13:17:21;4.00;;;2.80;;
562;SDS011;266;49.514;8.294;2024-02-21T13:19:51;3.20;;;2.90;;
562;SDS011;266;49.514;8.294;2024-02-21T13:22:19;6.77;;;2.87;;
562;SDS011;266;49.514;8.294;2024-02-21T13:24:48;4.90;;;2.90;;
562;SDS011;266;49.514;8.294;2024-02-21T13:27:19;2.50;;;2.30;;
562;SDS011;266;49.514;8.294;2024-02-21T13:29:49;4.77;;;2.77;;
562;SDS011;266;49.514;8.294;2024-02-21T13:32:19;3.93;;;2.43;;
562;SDS011;266;49.514;8.294;2024-02-21T13:34:47;3.10;;;2.90;;
562;SDS011;266;49.514;8.294;2024-02-21T13:37:16;4.10;;;2.83;;
562;SDS011;266;49.514;8.294;2024-02-21T13:39:44;3.13;;;2.10;;
562;SDS011;266;49.514;8.294;2024-02-21T13:42:13;3.30;;;2.10;;
562;SDS011;266;49.514;8.294;2024-02-21T13:44:42;10.33;;;3.20;;
562;SDS011;266;49.514;8.294;2024-02-21T13:47:10;6.30;;;2.60;;
562;SDS011;266;49.514;8.294;2024-02-21T13:49:40;3.97;;;2.20;;
562;SDS011;266;49.514;8.294;2024-02-21T13:52:09;4.17;;;2.97;;
562;SDS011;266;49.514;8.294;2024-02-21T13:54:38;4.63;;;2.10;;
562;SDS011;266;49.514;8.294;2024-02-21T13:57:06;3.30;;;1.97;;
562;SDS011;266;49.514;8.294;2024-02-21T13:59:34;3.90;;;2.10;;
562;SDS011;266;49.514;8.294;2024-02-21T14:02:02;2.77;;;2.23;;
562;SDS011;266;49.514;8.294;2024-02-21T14:04:30;4.77;;;2.40;;
562;SDS011;266;49.514;8.294;2024-02-21T14:06:58;2.23;;;1.87;;
562;SDS011;266;49.514;8.294;2024-02-21T14:09:27;2.93;;;2.23;;
562;SDS011;266;49.514;8.294;2024-02-21T14:11:57;3.10;;;2.33;;
562;SDS011;266;49.514;8.294;2024-02-21T14:14:25;4.30;;;2.50;;
562;SDS011;266;49.514;8.294;2024-02-21T14:16:53;3.80;;;2.33;;
562;SDS011;266;49.514;8.294;2024-02-21T14:19:23;2.77;;;2.20;;
562;SDS011;266;49.514;8.294;2024-02-21T14:21:51;2.93;;;2.17;;
562;SDS011;266;49.514;8.294;2024-02-21T14:24:19;2.30;;;2.10;;
562;SDS011;266;49.514;8.294;2024-02-21T14:26:47;4.50;;;2.47;;
562;SDS011;266;49.514;8.294;2024-02-21T14:29:16;4.37;;;2.43;;
562;SDS011;266;49.514;8.294;2024-02-21T14:31:44;2.47;;;2.27;;
562;SDS011;266;49.514;8.294;2024-02-21T14:34:13;2.60;;;1.87;;
562;SDS011;266;49.514;8.294;2024-02-21T14:36:41;4.93;;;2.40;;
562;SDS011;266;49.514;8.294;2024-02-21T14:39:09;3.83;;;2.50;;
562;SDS011;266;49.514;8.294;2024-02-21T14:41:37;3.10;;;2.53;;
562;SDS011;266;49.514;8.294;2024-02-21T14:44:05;6.90;;;2.33;;
562;SDS011;266;49.514;8.294;2024-02-21T14:46:37;4.90;;;2.50;;
562;SDS011;266;49.514;8.294;2024-02-21T14:49:05;3.00;;;1.90;;
562;SDS011;266;49.514;8.294;2024-02-21T14:51:33;5.60;;;2.80;;
562;SDS011;266;49.514;8.294;2024-02-21T14:54:01;2.27;;;1.97;;
562;SDS011;266;49.514;8.294;2024-02-21T14:56:29;6.50;;;2.43;;
562;SDS011;266;49.514;8.294;2024-02-21T14:58:58;2.40;;;2.20;;
562;SDS011;266;49.514;8.294;2024-02-21T15:01:37;2.50;;;2.30;;
562;SDS011;266;49.514;8.294;2024-02-21T15:04:06;4.20;;;2.57;;
562;SDS011;266;49.514;8.294;2024-02-21T15:06:34;4.23;;;2.60;;
562;SDS011;266;49.514;8.294;2024-02-21T15:09:03;2.30;;;2.10;;
562;SDS011;266;49.514;8.294;2024-02-21T15:11:34;4.30;;;2.67;;
562;SDS011;266;49.514;8.294;2024-02-21T15:14:02;6.13;;;3.20;;
562;SDS011;266;49.514;8.294;2024-02-21T15:16:30;4.93;;;3.23;;
562;SDS011;266;49.514;8.294;2024-02-21T15:19:00;4.40;;;2.80;;
562;SDS011;266;49.514;8.294;2024-02-21T15:21:29;2.57;;;1.83;;
562;SDS011;266;49.514;8.294;2024-02-21T15:23:57;2.23;;;2.13;;
562;SDS011;266;49.514;8.294;2024-02-21T15:26:27;3.43;;;2.10;;
562;SDS011;266;49.514;8.294;2024-02-21T15:28:55;5.63;;;3.03;;
562;SDS011;266;49.514;8.294;2024-02-21T15:31:24;3.00;;;2.63;;
562;SDS011;266;49.514;8.294;2024-02-21T15:33:52;2.67;;;2.40;;
562;SDS011;266;49.514;8.294;2024-02-21T15:36:22;2.10;;;2.00;;
562;SDS011;266;49.514;8.294;2024-02-21T15:38:50;3.10;;;2.20;;
562;SDS011;266;49.514;8.294;2024-02-21T15:41:18;6.00;;;2.50;;
562;SDS011;266;49.514;8.294;2024-02-21T15:43:47;4.13;;;3.53;;
562;SDS011;266;49.514;8.294;2024-02-21T15:46:16;3.03;;;2.17;;
562;SDS011;266;49.514;8.294;2024-02-21T15:48:44;3.20;;;2.13;;
562;SDS011;266;49.514;8.294;2024-02-21T15:51:12;3.30;;;2.70;;
562;SDS011;266;49.514;8.294;2024-02-21T15:53:42;5.00;;;2.70;;
562;SDS011;266;49.514;8.294;2024-02-21T15:56:11;6.97;;;2.43;;